Terminal Aerodrome Forecast
Issued by NWS Tulsa, OK

Home | Current Version | Previous Version | Text Only | Print | Product List | Glossary On
Versions: 1 2 3 4 5 6 7 8 9 10 11 12 13 14 15
000
FTUS44 KTSA 300500
TAFFSM
TAF
KFSM 300520Z 3006/3106 31004KT 5SM TSRA BKN025CB
     FM301100 27005KT P6SM BKN025
      TEMPO 3012/3016 4SM BR BKN015
     FM302100 31011KT P6SM OVC025=

USA.gov is the U.S. government's official web portal to all federal, state and local government web resources and services.